createdAt,value
2022-11-26T00:02:23.027Z,58.01
2022-11-26T00:04:52.795Z,57.93
2022-11-26T00:07:26.081Z,57.99
2022-11-26T00:09:55.108Z,57.97
2022-11-26T00:12:27.532Z,58.15
2022-11-26T00:14:56.481Z,58.16
2022-11-26T00:17:24.940Z,58.07
2022-11-26T00:19:53.222Z,58.00
2022-11-26T00:22:27.702Z,58.25
2022-11-26T00:24:57.049Z,58.12
2022-11-26T00:27:29.182Z,58.15
2022-11-26T00:29:58.510Z,58.00
2022-11-26T00:32:27.699Z,57.92
2022-11-26T00:34:56.094Z,57.97
2022-11-26T00:37:29.685Z,57.88
2022-11-26T00:39:59.046Z,57.75
2022-11-26T00:42:28.791Z,57.92
2022-11-26T00:44:57.170Z,57.69
2022-11-26T00:47:25.580Z,57.62
2022-11-26T00:49:53.863Z,57.63
2022-11-26T00:52:34.014Z,57.69
2022-11-26T00:55:11.245Z,57.54
2022-11-26T00:57:40.989Z,57.38
2022-11-26T01:00:20.438Z,57.28
2022-11-26T01:02:49.107Z,57.19
2022-11-26T01:05:18.252Z,57.27
2022-11-26T01:07:47.286Z,57.24
2022-11-26T01:10:21.095Z,57.06
2022-11-26T01:12:52.018Z,57.12
2022-11-26T01:15:23.644Z,57.25
2022-11-26T01:17:53.824Z,57.34
2022-11-26T01:20:27.685Z,57.34
2022-11-26T01:22:57.880Z,57.36
2022-11-26T01:25:27.735Z,57.57
2022-11-26T01:27:57.463Z,57.54
2022-11-26T01:30:28.635Z,57.67
2022-11-26T01:32:56.983Z,57.70
2022-11-26T01:35:25.205Z,57.76
2022-11-26T01:37:53.484Z,58.01
2022-11-26T01:41:11.752Z,57.77
2022-11-26T01:43:44.413Z,57.96
2022-11-26T01:46:16.822Z,58.01
2022-11-26T01:48:46.443Z,58.05
2022-11-26T01:51:17.193Z,58.04
2022-11-26T01:53:51.220Z,58.10
2022-11-26T01:56:28.376Z,58.06
2022-11-26T01:59:04.567Z,58.27
2022-11-26T02:01:34.314Z,58.07
2022-11-26T02:04:14.551Z,58.18
2022-11-26T02:06:45.316Z,58.13
2022-11-26T02:09:14.923Z,58.10
2022-11-26T02:11:43.658Z,58.24
2022-11-26T02:14:17.155Z,58.20
2022-11-26T02:17:19.439Z,58.28
2022-11-26T02:20:26.255Z,58.16
2022-11-26T02:23:48.091Z,58.25
2022-11-26T02:26:54.172Z,58.30
2022-11-26T02:29:30.948Z,58.37
2022-11-26T02:32:07.600Z,58.41
2022-11-26T02:34:41.850Z,58.32
2022-11-26T02:37:16.238Z,58.29
2022-11-26T02:39:44.574Z,58.26
2022-11-26T02:42:27.560Z,58.37
2022-11-26T02:44:59.237Z,58.32
2022-11-26T02:47:30.941Z,58.33
2022-11-26T02:50:04.194Z,58.35
2022-11-26T02:52:34.889Z,58.36
2022-11-26T02:55:07.579Z,58.33
2022-11-26T02:57:43.490Z,58.21
2022-11-26T03:00:13.310Z,58.32
2022-11-26T03:02:48.269Z,58.46
2022-11-26T03:05:19.166Z,58.50
2022-11-26T03:07:49.488Z,58.56
2022-11-26T03:10:20.232Z,58.50
2022-11-26T03:12:48.884Z,58.21
2022-11-26T03:15:17.351Z,58.47
2022-11-26T03:17:47.045Z,58.48
2022-11-26T03:20:15.710Z,58.47
2022-11-26T03:22:44.539Z,58.50
2022-11-26T03:25:13.182Z,58.59
2022-11-26T03:27:41.422Z,58.49
2022-11-26T03:30:11.211Z,58.43
2022-11-26T03:32:39.555Z,58.42
2022-11-26T03:35:10.405Z,58.39
2022-11-26T03:37:38.784Z,58.52
2022-11-26T03:40:10.068Z,58.61
2022-11-26T03:42:38.738Z,58.52
2022-11-26T03:45:08.332Z,58.44
2022-11-26T03:47:36.632Z,58.40
2022-11-26T03:50:05.750Z,58.51
2022-11-26T03:52:35.490Z,58.36
2022-11-26T03:55:03.816Z,58.47
2022-11-26T03:57:32.147Z,58.42
2022-11-26T04:00:00.386Z,58.35
2022-11-26T04:02:29.490Z,58.44
2022-11-26T04:04:57.672Z,58.37
2022-11-26T04:07:25.947Z,58.32
2022-11-26T04:09:55.598Z,58.36
2022-11-26T04:12:23.798Z,58.34
2022-11-26T04:14:52.050Z,58.30
2022-11-26T04:17:20.247Z,58.33
2022-11-26T04:19:48.515Z,58.30
2022-11-26T04:22:16.804Z,58.42
2022-11-26T04:24:45.064Z,58.36
2022-11-26T04:27:14.691Z,58.25
2022-11-26T04:29:42.944Z,58.20
2022-11-26T04:32:11.200Z,58.30
2022-11-26T04:34:39.767Z,58.21
2022-11-26T04:37:08.218Z,58.31
2022-11-26T04:39:37.475Z,58.24
2022-11-26T04:42:06.015Z,58.18
2022-11-26T04:44:35.993Z,58.15
2022-11-26T04:47:04.444Z,58.16
2022-11-26T04:49:32.729Z,58.27
2022-11-26T04:52:00.983Z,58.19
2022-11-26T04:54:29.223Z,58.34
2022-11-26T04:56:57.504Z,58.36
2022-11-26T04:59:25.851Z,58.34
2022-11-26T05:01:55.495Z,58.40
2022-11-26T05:04:23.915Z,58.30
2022-11-26T05:06:52.250Z,58.52
2022-11-26T05:09:20.544Z,58.54
2022-11-26T05:11:48.908Z,58.58
2022-11-26T05:14:17.387Z,58.59
2022-11-26T05:16:45.747Z,58.49
2022-11-26T05:19:15.460Z,58.58
2022-11-26T05:21:44.053Z,58.71
2022-11-26T05:24:12.324Z,58.71
2022-11-26T05:26:40.564Z,58.66
2022-11-26T05:29:08.828Z,58.63
2022-11-26T05:31:37.202Z,58.62
2022-11-26T05:34:05.606Z,58.71
2022-11-26T05:36:35.241Z,58.65
2022-11-26T05:39:03.614Z,58.62
2022-11-26T05:41:31.892Z,58.58
2022-11-26T05:44:00.130Z,58.65
2022-11-26T05:46:28.558Z,58.63
2022-11-26T05:48:56.847Z,58.48
2022-11-26T05:51:25.226Z,58.48
2022-11-26T05:53:54.811Z,58.63
2022-11-26T05:56:23.074Z,58.57
2022-11-26T05:58:51.445Z,58.45
2022-11-26T06:01:19.831Z,58.48
2022-11-26T06:03:48.245Z,58.35
2022-11-26T06:06:16.566Z,58.43
2022-11-26T06:08:44.833Z,58.32
2022-11-26T06:11:14.574Z,58.30
2022-11-26T06:13:42.908Z,58.34
2022-11-26T06:16:11.545Z,58.37
2022-11-26T06:18:40.534Z,58.38
2022-11-26T06:21:09.406Z,58.34
2022-11-26T06:23:37.767Z,58.37
2022-11-26T06:26:11.314Z,58.22
2022-11-26T06:28:41.345Z,58.17
2022-11-26T06:31:11.046Z,58.31
2022-11-26T06:33:39.430Z,58.47
2022-11-26T06:36:08.115Z,58.23
2022-11-26T06:38:36.399Z,58.29
2022-11-26T06:41:08.408Z,58.19
2022-11-26T06:43:37.480Z,58.27
2022-11-26T06:46:10.037Z,58.30
2022-11-26T06:48:39.490Z,58.31
2022-11-26T06:51:09.388Z,58.26
2022-11-26T06:53:37.993Z,58.43
2022-11-26T06:56:14.805Z,58.55
2022-11-26T06:58:46.842Z,58.43
2022-11-26T07:01:20.791Z,58.41
2022-11-26T07:03:49.413Z,58.44
2022-11-26T07:06:20.267Z,58.53
2022-11-26T07:08:49.172Z,58.71
2022-11-26T07:11:18.082Z,58.37
2022-11-26T07:13:46.641Z,58.51
2022-11-26T07:16:16.972Z,58.60
2022-11-26T07:18:49.984Z,58.61
2022-11-26T07:21:18.440Z,58.58
2022-11-26T07:23:46.985Z,58.71
2022-11-26T07:26:16.777Z,58.68
2022-11-26T07:28:47.166Z,58.77
2022-11-26T07:31:19.867Z,58.75
2022-11-26T07:33:48.998Z,58.87
2022-11-26T07:36:23.199Z,58.88
2022-11-26T07:38:52.047Z,58.98
2022-11-26T07:41:21.297Z,59.02
2022-11-26T07:43:49.891Z,59.03
2022-11-26T07:46:23.270Z,59.19
2022-11-26T07:48:52.410Z,59.27
2022-11-26T07:51:23.972Z,59.53
2022-11-26T07:53:53.132Z,59.55
2022-11-26T07:56:21.725Z,59.80
2022-11-26T07:58:50.199Z,59.70
2022-11-26T08:01:27.063Z,59.64
2022-11-26T08:03:55.639Z,59.78
2022-11-26T08:06:27.895Z,59.94
2022-11-26T08:08:56.282Z,59.70
2022-11-26T08:11:26.874Z,59.68
2022-11-26T08:13:56.401Z,59.69
2022-11-26T08:16:28.788Z,59.76
2022-11-26T08:18:59.446Z,59.74
2022-11-26T08:21:28.201Z,59.84
2022-11-26T08:23:56.942Z,59.75
2022-11-26T08:26:35.091Z,59.76
2022-11-26T08:29:04.568Z,59.87
2022-11-26T08:31:34.967Z,59.87
2022-11-26T08:34:04.413Z,59.84
2022-11-26T08:36:33.173Z,59.92
2022-11-26T08:39:02.370Z,59.61
2022-11-26T08:41:30.638Z,59.61
2022-11-26T08:44:07.854Z,59.65
2022-11-26T08:46:39.154Z,59.59
2022-11-26T08:49:10.515Z,59.63
2022-11-26T08:51:39.071Z,59.75
2022-11-26T08:54:07.447Z,59.55
2022-11-26T08:56:35.745Z,59.64
2022-11-26T08:59:04.393Z,59.57
2022-11-26T09:01:34.770Z,59.45
2022-11-26T09:04:05.942Z,59.53
2022-11-26T09:06:37.733Z,59.42
2022-11-26T09:09:17.694Z,59.43
2022-11-26T09:11:50.149Z,59.44
2022-11-26T09:14:21.140Z,59.37
2022-11-26T09:16:49.470Z,59.48
2022-11-26T09:19:20.053Z,59.31
2022-11-26T09:21:48.985Z,59.26
2022-11-26T09:24:18.423Z,59.25
2022-11-26T09:26:48.352Z,59.16
2022-11-26T09:29:19.663Z,59.11
2022-11-26T09:32:21.311Z,59.06
2022-11-26T09:34:39.111Z,59.04
2022-11-26T09:37:08.000Z,58.84
2022-11-26T09:39:36.346Z,58.80
2022-11-26T09:42:09.107Z,58.60
2022-11-26T09:44:56.791Z,58.59
2022-11-26T09:47:27.881Z,58.77
2022-11-26T09:50:09.234Z,58.93
2022-11-26T09:52:42.640Z,59.05
2022-11-26T09:55:19.951Z,59.03
2022-11-26T09:57:59.228Z,59.01
2022-11-26T10:00:30.667Z,58.79
2022-11-26T10:03:00.080Z,58.67
2022-11-26T10:05:45.019Z,58.51
2022-11-26T10:08:33.266Z,58.44
2022-11-26T10:11:09.862Z,58.37
2022-11-26T10:13:46.286Z,58.37
2022-11-26T10:16:26.511Z,58.09
2022-11-26T10:19:04.105Z,58.10
2022-11-26T10:21:58.155Z,57.67
2022-11-26T10:24:32.246Z,57.82
2022-11-26T10:27:05.650Z,57.62
2022-11-26T10:29:39.717Z,57.69
2022-11-26T10:32:17.531Z,57.74
2022-11-26T10:34:51.897Z,57.61
2022-11-26T10:37:24.246Z,57.75
2022-11-26T10:40:02.061Z,57.74
2022-11-26T10:42:42.742Z,57.83
2022-11-26T10:45:20.167Z,57.74
2022-11-26T10:47:48.479Z,57.70
2022-11-26T10:53:23.044Z,57.51
2022-11-26T10:55:53.305Z,57.44
2022-11-26T10:58:24.809Z,57.36
2022-11-26T11:01:00.024Z,57.34
2022-11-26T11:04:05.944Z,57.31
2022-11-26T11:06:39.851Z,57.27
2022-11-26T11:09:29.009Z,57.23
2022-11-26T11:12:21.990Z,57.09
2022-11-26T11:14:51.955Z,57.11
2022-11-26T11:17:36.586Z,57.22
2022-11-26T11:20:30.461Z,56.99
2022-11-26T11:23:03.696Z,56.90
2022-11-26T11:25:35.735Z,56.82
2022-11-26T11:28:12.280Z,56.77
2022-11-26T11:30:42.948Z,56.90
2022-11-26T11:33:20.192Z,56.71
2022-11-26T11:36:07.303Z,56.67
2022-11-26T11:38:48.886Z,56.88
2022-11-26T11:41:28.543Z,56.72
2022-11-26T11:44:13.336Z,56.75
2022-11-26T11:47:14.572Z,56.81
2022-11-26T11:49:58.681Z,56.77
2022-11-26T11:52:38.093Z,56.87
2022-11-26T11:55:20.494Z,56.70
2022-11-26T11:58:13.535Z,56.92
2022-11-26T12:00:50.979Z,56.93
2022-11-26T12:03:52.881Z,57.03
2022-11-26T12:06:36.742Z,57.17
2022-11-26T12:09:20.044Z,57.16
2022-11-26T12:11:57.469Z,56.99
2022-11-26T12:14:35.745Z,57.02
2022-11-26T12:17:13.946Z,56.89
2022-11-26T12:19:48.740Z,56.93
2022-11-26T12:22:21.766Z,56.71
2022-11-26T12:24:55.576Z,56.67
2022-11-26T12:27:32.804Z,56.19
2022-11-26T12:30:06.754Z,56.49
2022-11-26T12:32:40.979Z,56.46
2022-11-26T12:35:17.058Z,56.55
2022-11-26T12:37:46.742Z,56.53
2022-11-26T12:40:29.339Z,56.49
2022-11-26T12:43:04.963Z,56.50
2022-11-26T12:45:46.051Z,56.40
2022-11-26T12:48:28.939Z,56.34
2022-11-26T12:51:02.505Z,56.25
2022-11-26T12:53:42.862Z,56.07
2022-11-26T12:56:21.099Z,56.18
2022-11-26T12:59:00.458Z,56.05
2022-11-26T13:01:30.769Z,55.93
2022-11-26T13:04:22.034Z,55.80
2022-11-26T13:07:08.951Z,55.92
2022-11-26T13:09:54.550Z,55.90
2022-11-26T13:12:32.128Z,55.86
2022-11-26T13:15:10.818Z,55.62
2022-11-26T13:17:44.855Z,55.48
2022-11-26T13:20:44.592Z,55.36
2022-11-26T13:23:43.124Z,55.38
2022-11-26T13:26:39.242Z,55.47
2022-11-26T13:29:34.844Z,55.50
2022-11-26T13:32:34.116Z,55.86
2022-11-26T13:35:19.476Z,55.47
2022-11-26T13:38:16.529Z,55.49
2022-11-26T13:41:13.400Z,55.52
2022-11-26T13:44:33.418Z,55.57
2022-11-26T13:47:05.730Z,55.27
2022-11-26T13:49:39.022Z,55.73
2022-11-26T13:52:15.155Z,55.57
2022-11-26T13:54:51.160Z,55.73
2022-11-26T13:57:25.444Z,55.80
2022-11-26T13:59:56.651Z,55.72
2022-11-26T14:02:47.423Z,55.93
2022-11-26T14:05:17.537Z,55.78
2022-11-26T14:07:47.807Z,55.76
2022-11-26T14:10:44.356Z,55.77
2022-11-26T14:13:17.502Z,55.64
2022-11-26T14:16:00.128Z,55.69
2022-11-26T14:19:00.726Z,55.67
2022-11-26T14:21:31.174Z,55.66
2022-11-26T14:24:02.492Z,55.55
2022-11-26T14:26:37.339Z,55.39
2022-11-26T14:29:17.509Z,55.38
2022-11-26T14:31:52.135Z,55.16
2022-11-26T14:34:27.189Z,55.17
2022-11-26T14:36:58.708Z,55.12
2022-11-26T14:39:29.277Z,54.98
2022-11-26T14:42:05.507Z,54.84
2022-11-26T14:44:34.746Z,54.69
2022-11-26T14:47:12.375Z,54.69
2022-11-26T14:49:46.854Z,54.73
2022-11-26T14:52:23.119Z,54.29
2022-11-26T14:54:57.645Z,54.27
2022-11-26T14:57:31.872Z,54.20
2022-11-26T15:00:03.001Z,53.96
2022-11-26T15:02:32.941Z,54.07
2022-11-26T15:05:15.250Z,53.85
2022-11-26T15:07:43.988Z,53.62
2022-11-26T15:10:23.143Z,53.53
2022-11-26T15:12:53.745Z,53.36
2022-11-26T15:15:24.821Z,53.46
2022-11-26T15:17:57.778Z,53.17
2022-11-26T15:20:26.538Z,53.17
2022-11-26T15:22:57.508Z,53.23
2022-11-26T15:25:30.367Z,53.28
2022-11-26T15:28:01.217Z,53.27
2022-11-26T15:30:31.926Z,53.31
2022-11-26T15:33:03.448Z,53.26
2022-11-26T15:35:33.327Z,53.29
2022-11-26T15:38:01.993Z,53.32
2022-11-26T15:40:45.467Z,53.42
2022-11-26T15:43:22.816Z,53.44
2022-11-26T15:45:53.425Z,53.21
2022-11-26T15:48:36.355Z,53.39
2022-11-26T15:51:17.694Z,53.30
2022-11-26T15:53:49.250Z,53.15
2022-11-26T15:56:21.233Z,52.89
2022-11-26T15:58:53.704Z,52.98
2022-11-26T16:03:53.745Z,52.80
2022-11-26T16:06:34.596Z,52.73
2022-11-26T16:09:26.324Z,52.68
2022-11-26T16:12:01.799Z,52.82
2022-11-26T16:14:36.405Z,52.69
2022-11-26T16:17:11.322Z,52.88
2022-11-26T16:19:46.078Z,52.96
2022-11-26T16:22:17.850Z,53.08
2022-11-26T16:24:46.611Z,53.04
2022-11-26T16:27:30.496Z,53.34
2022-11-26T16:29:59.424Z,53.23
2022-11-26T16:32:27.706Z,53.41
2022-11-26T16:34:56.006Z,53.59
2022-11-26T16:37:26.922Z,53.78
2022-11-26T16:40:02.793Z,53.96
2022-11-26T16:42:33.628Z,54.04
2022-11-26T16:45:04.344Z,54.13
2022-11-26T16:47:36.123Z,54.13
2022-11-26T16:50:05.757Z,54.32
2022-11-26T16:52:36.472Z,54.22
2022-11-26T16:55:05.243Z,54.26
2022-11-26T16:57:35.000Z,54.27
2022-11-26T17:00:06.904Z,54.45
2022-11-26T17:02:35.474Z,54.65
2022-11-26T17:05:04.857Z,54.67
2022-11-26T17:07:40.517Z,54.63
2022-11-26T17:10:15.498Z,54.73
2022-11-26T17:12:45.586Z,54.68
2022-11-26T17:15:14.345Z,54.72
2022-11-26T17:17:43.279Z,54.70
2022-11-26T17:20:19.131Z,54.68
2022-11-26T17:22:48.015Z,54.51
2022-11-26T17:25:16.673Z,54.37
2022-11-26T17:27:47.313Z,54.17
2022-11-26T17:30:18.905Z,54.08
2022-11-26T17:32:47.436Z,54.05
2022-11-26T17:35:16.140Z,54.01
2022-11-26T17:37:44.831Z,53.90
2022-11-26T17:40:18.717Z,54.10
2022-11-26T17:42:48.864Z,54.00
2022-11-26T17:45:18.411Z,54.07
2022-11-26T17:47:47.446Z,54.11
2022-11-26T17:50:21.314Z,54.11
2022-11-26T17:52:50.645Z,54.18
2022-11-26T17:55:20.237Z,54.10
2022-11-26T17:57:50.391Z,54.08
2022-11-26T18:00:21.885Z,53.99
2022-11-26T18:02:50.289Z,54.01
2022-11-26T18:05:18.866Z,53.94
2022-11-26T18:07:47.693Z,53.80
2022-11-26T18:10:18.739Z,53.83
2022-11-26T18:12:47.164Z,53.84
2022-11-26T18:15:21.330Z,53.87
2022-11-26T18:17:51.527Z,53.83
2022-11-26T18:20:22.448Z,53.84
2022-11-26T18:22:52.854Z,53.86
2022-11-26T18:25:21.358Z,54.00
2022-11-26T18:27:49.820Z,54.22
2022-11-26T18:30:20.860Z,54.02
2022-11-26T18:32:49.270Z,54.14
2022-11-26T18:35:18.035Z,54.20
2022-11-26T18:37:46.345Z,54.23
2022-11-26T18:40:18.015Z,54.37
2022-11-26T18:42:46.832Z,54.37
2022-11-26T18:45:16.868Z,54.36
2022-11-26T18:47:46.549Z,54.27
2022-11-26T18:50:14.870Z,54.28
2022-11-26T18:52:43.236Z,54.30
2022-11-26T18:55:14.234Z,54.21
2022-11-26T18:57:42.562Z,54.06
2022-11-26T19:00:12.429Z,54.02
2022-11-26T19:02:40.752Z,54.07
2022-11-26T19:05:11.410Z,54.05
2022-11-26T19:07:40.330Z,54.10
2022-11-26T19:10:10.225Z,54.19
2022-11-26T19:12:38.645Z,54.55
2022-11-26T19:15:08.363Z,54.85
2022-11-26T19:17:36.707Z,54.82
2022-11-26T19:20:06.378Z,54.83
2022-11-26T19:22:36.139Z,55.02
2022-11-26T19:25:04.614Z,55.11
2022-11-26T19:27:32.969Z,55.30
2022-11-26T19:30:01.300Z,55.07
2022-11-26T19:32:29.931Z,55.01
2022-11-26T19:35:02.653Z,55.15
2022-11-26T19:37:35.417Z,55.12
2022-11-26T19:40:04.366Z,55.12
2022-11-26T19:42:32.759Z,55.18
2022-11-26T19:45:01.083Z,55.34
2022-11-26T19:47:29.377Z,55.61
2022-11-26T19:49:57.699Z,55.47
2022-11-26T19:52:25.960Z,55.53
2022-11-26T19:54:55.631Z,55.65
2022-11-26T19:57:24.139Z,55.69
2022-11-26T19:59:52.665Z,55.82
2022-11-26T20:02:20.986Z,55.87
2022-11-26T20:04:49.312Z,55.88
2022-11-26T20:07:17.843Z,55.72
2022-11-26T20:09:46.215Z,55.99
2022-11-26T20:12:15.992Z,55.95
2022-11-26T20:14:44.374Z,56.01
2022-11-26T20:17:12.912Z,55.94
2022-11-26T20:19:41.566Z,56.08
2022-11-26T20:22:10.326Z,56.28
2022-11-26T20:24:38.710Z,56.20
2022-11-26T20:27:07.120Z,56.28
2022-11-26T20:29:36.916Z,56.32
2022-11-26T20:32:05.470Z,56.27
2022-11-26T20:34:33.978Z,56.14
2022-11-26T20:37:03.466Z,56.38
2022-11-26T20:39:31.936Z,56.31
2022-11-26T20:42:00.237Z,56.32
2022-11-26T20:44:28.658Z,56.31
2022-11-26T20:46:58.330Z,56.19
2022-11-26T20:49:30.780Z,56.16
2022-11-26T20:52:01.939Z,56.33
2022-11-26T20:54:30.207Z,56.13
2022-11-26T20:56:58.674Z,56.27
2022-11-26T20:59:27.181Z,56.35
2022-11-26T21:01:56.987Z,56.33
2022-11-26T21:04:25.338Z,56.33
2022-11-26T21:06:53.642Z,56.34
2022-11-26T21:09:21.961Z,56.33
2022-11-26T21:11:50.229Z,56.34
2022-11-26T21:14:18.500Z,56.44
2022-11-26T21:16:46.814Z,56.39
2022-11-26T21:19:16.575Z,56.38
2022-11-26T21:21:44.799Z,56.41
2022-11-26T21:24:14.527Z,56.45
2022-11-26T21:26:42.763Z,56.33
2022-11-26T21:29:11.102Z,56.28
2022-11-26T21:31:40.140Z,56.36
2022-11-26T21:34:09.549Z,56.29
2022-11-26T21:36:39.287Z,56.34
2022-11-26T21:39:07.592Z,56.54
2022-11-26T21:41:35.883Z,56.56
2022-11-26T21:44:04.412Z,56.57
2022-11-26T21:46:37.813Z,56.57
2022-11-26T21:49:07.260Z,56.57
2022-11-26T21:51:35.614Z,56.62
2022-11-26T21:54:05.823Z,56.47
2022-11-26T21:56:34.488Z,56.57
2022-11-26T21:59:03.401Z,56.50
2022-11-26T22:04:12.093Z,56.40
2022-11-26T22:06:40.991Z,56.29
2022-11-26T22:09:11.181Z,56.30
2022-11-26T22:11:42.403Z,56.22
2022-11-26T22:14:14.799Z,56.27
2022-11-26T22:16:43.797Z,56.13
2022-11-26T22:19:12.133Z,56.18
2022-11-26T22:21:42.575Z,56.10
2022-11-26T22:24:16.883Z,56.01
2022-11-26T22:26:45.915Z,55.98
2022-11-26T22:29:16.874Z,56.03
2022-11-26T22:31:45.739Z,55.85
2022-11-26T22:34:16.026Z,55.81
2022-11-26T22:36:45.634Z,55.79
2022-11-26T22:39:18.157Z,55.83
2022-11-26T22:41:47.931Z,55.79
2022-11-26T22:44:17.305Z,55.82
2022-11-26T22:46:46.090Z,55.86
2022-11-26T22:49:17.807Z,55.80
2022-11-26T22:51:47.404Z,55.80
2022-11-26T22:54:19.175Z,55.76
2022-11-26T22:56:47.932Z,55.77
2022-11-26T22:59:16.274Z,55.73
2022-11-26T23:01:44.650Z,55.62
2022-11-26T23:04:13.241Z,55.68
2022-11-26T23:06:41.615Z,55.66
2022-11-26T23:09:13.406Z,55.60
2022-11-26T23:11:44.514Z,55.73
2022-11-26T23:14:12.961Z,55.69
2022-11-26T23:16:43.279Z,55.75
2022-11-26T23:19:15.225Z,55.57
2022-11-26T23:21:44.844Z,55.57
2022-11-26T23:24:15.417Z,55.61
2022-11-26T23:26:46.255Z,55.21
2022-11-26T23:29:15.236Z,55.48
2022-11-26T23:31:45.802Z,55.38
2022-11-26T23:34:14.966Z,55.34
2022-11-26T23:36:43.821Z,55.24
2022-11-26T23:39:13.696Z,55.25
2022-11-26T23:41:42.042Z,55.21
2022-11-26T23:44:11.786Z,55.05
2022-11-26T23:46:40.183Z,54.87
2022-11-26T23:49:08.541Z,54.98
2022-11-26T23:51:36.836Z,54.88
2022-11-26T23:54:05.460Z,54.95
2022-11-26T23:56:35.727Z,54.96
2022-11-26T23:59:05.607Z,54.80
